sensor_id;sensor_type;location;lat;lon;timestamp;P1;durP1;ratioP1;P2;durP2;ratioP2
75071;SDS011;63651;55.728;38.022;2022-10-28T00:02:58;17.75;;;9.32;;
75071;SDS011;63651;55.728;38.022;2022-10-28T00:07:59;16.17;;;9.27;;
75071;SDS011;63651;55.728;38.022;2022-10-28T00:12:59;16.35;;;9.82;;
75071;SDS011;63651;55.728;38.022;2022-10-28T00:18:00;16.90;;;9.30;;
75071;SDS011;63651;55.728;38.022;2022-10-28T00:23:01;14.60;;;8.43;;
75071;SDS011;63651;55.728;38.022;2022-10-28T00:28:02;15.73;;;9.20;;
75071;SDS011;63651;55.728;38.022;2022-10-28T00:33:02;14.88;;;8.15;;
75071;SDS011;63651;55.728;38.022;2022-10-28T00:38:03;12.60;;;7.57;;
75071;SDS011;63651;55.728;38.022;2022-10-28T00:43:04;13.05;;;6.82;;
75071;SDS011;63651;55.728;38.022;2022-10-28T00:48:04;12.35;;;7.25;;
75071;SDS011;63651;55.728;38.022;2022-10-28T00:53:10;9.70;;;6.18;;
75071;SDS011;63651;55.728;38.022;2022-10-28T00:58:13;12.77;;;6.53;;
75071;SDS011;63651;55.728;38.022;2022-10-28T01:03:14;9.48;;;5.93;;
75071;SDS011;63651;55.728;38.022;2022-10-28T01:08:15;10.00;;;6.18;;
75071;SDS011;63651;55.728;38.022;2022-10-28T01:49:20;10.45;;;5.22;;
75071;SDS011;63651;55.728;38.022;2022-10-28T01:54:23;8.57;;;5.43;;
75071;SDS011;63651;55.728;38.022;2022-10-28T01:59:25;7.25;;;4.60;;
75071;SDS011;63651;55.728;38.022;2022-10-28T02:04:27;8.77;;;5.47;;
75071;SDS011;63651;55.728;38.022;2022-10-28T02:10:29;8.15;;;5.13;;
75071;SDS011;63651;55.728;38.022;2022-10-28T02:15:02;10.55;;;6.10;;
75071;SDS011;63651;55.728;38.022;2022-10-28T02:20:17;11.02;;;6.32;;
75071;SDS011;63651;55.728;38.022;2022-10-28T02:30:57;13.90;;;8.77;;
75071;SDS011;63651;55.728;38.022;2022-10-28T02:36:05;13.15;;;7.15;;
75071;SDS011;63651;55.728;38.022;2022-10-28T02:41:11;14.02;;;8.43;;
75071;SDS011;63651;55.728;38.022;2022-10-28T02:51:16;12.03;;;6.30;;
75071;SDS011;63651;55.728;38.022;2022-10-28T02:56:19;12.68;;;7.05;;
75071;SDS011;63651;55.728;38.022;2022-10-28T03:01:20;14.20;;;7.00;;
75071;SDS011;63651;55.728;38.022;2022-10-28T03:06:21;11.63;;;6.70;;
75071;SDS011;63651;55.728;38.022;2022-10-28T03:11:22;10.95;;;6.80;;
75071;SDS011;63651;55.728;38.022;2022-10-28T03:16:23;10.90;;;6.32;;
75071;SDS011;63651;55.728;38.022;2022-10-28T03:21:23;10.65;;;6.63;;
75071;SDS011;63651;55.728;38.022;2022-10-28T03:26:24;8.40;;;5.22;;
75071;SDS011;63651;55.728;38.022;2022-10-28T03:31:25;8.00;;;5.18;;
75071;SDS011;63651;55.728;38.022;2022-10-28T03:36:25;9.10;;;5.00;;
75071;SDS011;63651;55.728;38.022;2022-10-28T03:41:26;8.88;;;5.03;;
75071;SDS011;63651;55.728;38.022;2022-10-28T03:46:27;8.23;;;4.60;;
75071;SDS011;63651;55.728;38.022;2022-10-28T03:51:27;25.23;;;8.88;;
75071;SDS011;63651;55.728;38.022;2022-10-28T03:56:28;33.88;;;10.63;;
75071;SDS011;63651;55.728;38.022;2022-10-28T04:01:29;33.80;;;8.77;;
75071;SDS011;63651;55.728;38.022;2022-10-28T04:06:29;22.33;;;8.02;;
75071;SDS011;63651;55.728;38.022;2022-10-28T04:11:30;17.60;;;7.55;;
75071;SDS011;63651;55.728;38.022;2022-10-28T04:16:31;20.83;;;7.03;;
75071;SDS011;63651;55.728;38.022;2022-10-28T04:21:31;16.73;;;6.80;;
75071;SDS011;63651;55.728;38.022;2022-10-28T04:26:32;17.50;;;6.15;;
75071;SDS011;63651;55.728;38.022;2022-10-28T04:31:33;11.30;;;5.93;;
75071;SDS011;63651;55.728;38.022;2022-10-28T04:36:34;11.93;;;5.88;;
75071;SDS011;63651;55.728;38.022;2022-10-28T04:41:34;13.15;;;5.40;;
75071;SDS011;63651;55.728;38.022;2022-10-28T04:46:35;13.50;;;5.70;;
75071;SDS011;63651;55.728;38.022;2022-10-28T04:51:36;13.77;;;5.60;;
75071;SDS011;63651;55.728;38.022;2022-10-28T04:56:36;10.98;;;5.25;;
75071;SDS011;63651;55.728;38.022;2022-10-28T05:01:37;13.13;;;5.68;;
75071;SDS011;63651;55.728;38.022;2022-10-28T05:06:38;10.73;;;5.32;;
75071;SDS011;63651;55.728;38.022;2022-10-28T05:11:38;10.50;;;5.25;;
75071;SDS011;63651;55.728;38.022;2022-10-28T05:16:39;9.38;;;5.53;;
75071;SDS011;63651;55.728;38.022;2022-10-28T05:21:40;12.57;;;5.43;;
75071;SDS011;63651;55.728;38.022;2022-10-28T05:26:41;9.40;;;5.10;;
75071;SDS011;63651;55.728;38.022;2022-10-28T05:31:41;7.95;;;5.13;;
75071;SDS011;63651;55.728;38.022;2022-10-28T05:36:42;8.10;;;4.97;;
75071;SDS011;63651;55.728;38.022;2022-10-28T05:41:43;8.40;;;5.35;;
75071;SDS011;63651;55.728;38.022;2022-10-28T05:46:43;9.80;;;5.10;;
75071;SDS011;63651;55.728;38.022;2022-10-28T05:51:47;7.40;;;5.05;;
75071;SDS011;63651;55.728;38.022;2022-10-28T05:56:47;9.25;;;5.45;;
75071;SDS011;63651;55.728;38.022;2022-10-28T06:01:48;10.13;;;5.30;;
75071;SDS011;63651;55.728;38.022;2022-10-28T06:06:49;8.23;;;5.00;;
75071;SDS011;63651;55.728;38.022;2022-10-28T06:11:50;6.85;;;5.25;;
75071;SDS011;63651;55.728;38.022;2022-10-28T06:16:53;7.65;;;4.60;;
75071;SDS011;63651;55.728;38.022;2022-10-28T06:21:54;7.03;;;4.10;;
75071;SDS011;63651;55.728;38.022;2022-10-28T06:26:54;7.88;;;5.00;;
75071;SDS011;63651;55.728;38.022;2022-10-28T06:31:55;7.85;;;4.32;;
75071;SDS011;63651;55.728;38.022;2022-10-28T06:36:56;7.85;;;4.97;;
75071;SDS011;63651;55.728;38.022;2022-10-28T06:41:56;7.93;;;4.88;;
75071;SDS011;63651;55.728;38.022;2022-10-28T06:46:57;7.95;;;5.35;;
75071;SDS011;63651;55.728;38.022;2022-10-28T06:51:58;9.77;;;4.75;;
75071;SDS011;63651;55.728;38.022;2022-10-28T06:56:58;7.50;;;4.22;;
75071;SDS011;63651;55.728;38.022;2022-10-28T07:01:59;6.95;;;4.60;;
75071;SDS011;63651;55.728;38.022;2022-10-28T07:07:00;7.25;;;4.45;;
75071;SDS011;63651;55.728;38.022;2022-10-28T07:12:00;8.27;;;4.90;;
75071;SDS011;63651;55.728;38.022;2022-10-28T07:17:01;7.53;;;4.15;;
75071;SDS011;63651;55.728;38.022;2022-10-28T07:22:02;6.60;;;4.45;;
75071;SDS011;63651;55.728;38.022;2022-10-28T07:27:03;8.63;;;4.72;;
75071;SDS011;63651;55.728;38.022;2022-10-28T07:32:03;7.72;;;4.40;;
75071;SDS011;63651;55.728;38.022;2022-10-28T07:37:04;8.82;;;4.95;;
75071;SDS011;63651;55.728;38.022;2022-10-28T07:42:05;8.30;;;4.97;;
75071;SDS011;63651;55.728;38.022;2022-10-28T07:47:06;9.38;;;5.22;;
75071;SDS011;63651;55.728;38.022;2022-10-28T07:52:07;11.30;;;5.38;;
75071;SDS011;63651;55.728;38.022;2022-10-28T07:57:08;8.35;;;4.93;;
75071;SDS011;63651;55.728;38.022;2022-10-28T08:02:11;7.25;;;4.45;;
75071;SDS011;63651;55.728;38.022;2022-10-28T08:07:14;8.10;;;4.88;;
75071;SDS011;63651;55.728;38.022;2022-10-28T08:12:15;6.68;;;4.68;;
75071;SDS011;63651;55.728;38.022;2022-10-28T08:17:16;9.20;;;4.95;;
75071;SDS011;63651;55.728;38.022;2022-10-28T08:22:17;9.50;;;5.57;;
75071;SDS011;63651;55.728;38.022;2022-10-28T08:27:17;10.35;;;5.78;;
75071;SDS011;63651;55.728;38.022;2022-10-28T08:32:18;8.70;;;5.32;;
75071;SDS011;63651;55.728;38.022;2022-10-28T08:37:19;9.07;;;5.45;;
75071;SDS011;63651;55.728;38.022;2022-10-28T08:42:25;11.30;;;5.75;;
75071;SDS011;63651;55.728;38.022;2022-10-28T08:47:31;9.20;;;5.78;;
75071;SDS011;63651;55.728;38.022;2022-10-28T08:57:38;11.13;;;6.80;;
75071;SDS011;63651;55.728;38.022;2022-10-28T09:02:48;10.45;;;7.05;;
75071;SDS011;63651;55.728;38.022;2022-10-28T09:07:50;13.90;;;8.10;;
75071;SDS011;63651;55.728;38.022;2022-10-28T09:13:03;13.23;;;8.27;;
75071;SDS011;63651;55.728;38.022;2022-10-28T09:18:34;12.18;;;7.38;;
75071;SDS011;63651;55.728;38.022;2022-10-28T09:38:51;13.98;;;8.25;;
75071;SDS011;63651;55.728;38.022;2022-10-28T09:43:55;15.98;;;9.18;;
75071;SDS011;63651;55.728;38.022;2022-10-28T09:49:00;12.50;;;8.40;;
75071;SDS011;63651;55.728;38.022;2022-10-28T09:54:01;15.57;;;8.52;;
75071;SDS011;63651;55.728;38.022;2022-10-28T09:59:02;14.02;;;8.27;;
75071;SDS011;63651;55.728;38.022;2022-10-28T10:04:17;13.60;;;8.32;;
75071;SDS011;63651;55.728;38.022;2022-10-28T10:09:25;12.07;;;8.05;;
75071;SDS011;63651;55.728;38.022;2022-10-28T10:14:28;13.45;;;8.15;;
75071;SDS011;63651;55.728;38.022;2022-10-28T10:19:55;11.52;;;7.75;;
75071;SDS011;63651;55.728;38.022;2022-10-28T10:24:50;12.10;;;8.05;;
75071;SDS011;63651;55.728;38.022;2022-10-28T10:29:51;10.25;;;7.40;;
75071;SDS011;63651;55.728;38.022;2022-10-28T10:35:02;11.60;;;7.60;;
75071;SDS011;63651;55.728;38.022;2022-10-28T10:40:05;14.23;;;8.50;;
75071;SDS011;63651;55.728;38.022;2022-10-28T10:45:23;10.93;;;7.90;;
75071;SDS011;63651;55.728;38.022;2022-10-28T10:50:28;10.80;;;7.40;;
75071;SDS011;63651;55.728;38.022;2022-10-28T10:55:36;9.65;;;7.30;;
75071;SDS011;63651;55.728;38.022;2022-10-28T11:00:42;9.02;;;6.70;;
75071;SDS011;63651;55.728;38.022;2022-10-28T11:05:51;9.77;;;6.47;;
75071;SDS011;63651;55.728;38.022;2022-10-28T11:11:05;8.70;;;6.28;;
75071;SDS011;63651;55.728;38.022;2022-10-28T11:16:20;11.25;;;6.70;;
75071;SDS011;63651;55.728;38.022;2022-10-28T11:26:25;8.80;;;6.13;;
75071;SDS011;63651;55.728;38.022;2022-10-28T11:41:30;13.25;;;6.72;;
75071;SDS011;63651;55.728;38.022;2022-10-28T11:57:05;8.80;;;5.55;;
75071;SDS011;63651;55.728;38.022;2022-10-28T12:22:30;7.80;;;5.50;;
75071;SDS011;63651;55.728;38.022;2022-10-28T12:27:35;8.45;;;6.40;;
75071;SDS011;63651;55.728;38.022;2022-10-28T12:32:36;7.55;;;5.40;;
75071;SDS011;63651;55.728;38.022;2022-10-28T12:37:39;7.50;;;5.68;;
75071;SDS011;63651;55.728;38.022;2022-10-28T12:42:44;7.70;;;5.72;;
75071;SDS011;63651;55.728;38.022;2022-10-28T12:47:54;7.32;;;5.05;;
75071;SDS011;63651;55.728;38.022;2022-10-28T12:58:01;8.00;;;5.85;;
75071;SDS011;63651;55.728;38.022;2022-10-28T13:03:04;7.00;;;5.47;;
75071;SDS011;63651;55.728;38.022;2022-10-28T13:29:18;7.80;;;5.40;;
75071;SDS011;63651;55.728;38.022;2022-10-28T13:34:43;7.80;;;5.60;;
75071;SDS011;63651;55.728;38.022;2022-10-28T13:39:43;6.13;;;4.53;;
75071;SDS011;63651;55.728;38.022;2022-10-28T14:05:25;8.93;;;5.05;;
75071;SDS011;63651;55.728;38.022;2022-10-28T14:15:27;5.95;;;4.60;;
75071;SDS011;63651;55.728;38.022;2022-10-28T14:20:35;8.27;;;5.45;;
75071;SDS011;63651;55.728;38.022;2022-10-28T14:31:16;7.00;;;5.15;;
75071;SDS011;63651;55.728;38.022;2022-10-28T14:46:43;6.53;;;4.78;;
75071;SDS011;63651;55.728;38.022;2022-10-28T14:51:46;6.10;;;4.70;;
75071;SDS011;63651;55.728;38.022;2022-10-28T14:56:46;7.68;;;4.88;;
75071;SDS011;63651;55.728;38.022;2022-10-28T15:06:58;6.40;;;4.78;;
75071;SDS011;63651;55.728;38.022;2022-10-28T15:12:04;11.18;;;5.20;;
75071;SDS011;63651;55.728;38.022;2022-10-28T15:22:13;6.45;;;5.03;;
75071;SDS011;63651;55.728;38.022;2022-10-28T15:27:14;7.03;;;4.80;;
75071;SDS011;63651;55.728;38.022;2022-10-28T15:37:22;7.25;;;5.38;;
75071;SDS011;63651;55.728;38.022;2022-10-28T15:47:28;7.10;;;4.95;;
75071;SDS011;63651;55.728;38.022;2022-10-28T15:52:34;5.00;;;4.00;;
75071;SDS011;63651;55.728;38.022;2022-10-28T15:57:46;7.45;;;4.18;;
75071;SDS011;63651;55.728;38.022;2022-10-28T16:07:57;6.80;;;4.43;;
75071;SDS011;63651;55.728;38.022;2022-10-28T16:12:57;5.22;;;4.18;;
75071;SDS011;63651;55.728;38.022;2022-10-28T16:17:58;7.35;;;4.63;;
75071;SDS011;63651;55.728;38.022;2022-10-28T16:22:59;6.63;;;4.32;;
75071;SDS011;63651;55.728;38.022;2022-10-28T16:28:00;8.40;;;5.40;;
75071;SDS011;63651;55.728;38.022;2022-10-28T16:33:00;14.73;;;8.85;;
75071;SDS011;63651;55.728;38.022;2022-10-28T16:38:02;10.45;;;6.63;;
75071;SDS011;63651;55.728;38.022;2022-10-28T16:43:03;8.35;;;6.03;;
75071;SDS011;63651;55.728;38.022;2022-10-28T16:48:07;14.85;;;6.18;;
75071;SDS011;63651;55.728;38.022;2022-10-28T16:53:10;7.60;;;5.85;;
75071;SDS011;63651;55.728;38.022;2022-10-28T16:58:11;9.40;;;5.93;;
75071;SDS011;63651;55.728;38.022;2022-10-28T17:03:12;10.48;;;5.95;;
75071;SDS011;63651;55.728;38.022;2022-10-28T17:08:14;10.02;;;5.75;;
75071;SDS011;63651;55.728;38.022;2022-10-28T17:13:15;8.40;;;5.85;;
75071;SDS011;63651;55.728;38.022;2022-10-28T17:18:16;9.15;;;6.15;;
75071;SDS011;63651;55.728;38.022;2022-10-28T17:23:17;10.02;;;6.78;;
75071;SDS011;63651;55.728;38.022;2022-10-28T17:28:17;9.48;;;6.00;;
75071;SDS011;63651;55.728;38.022;2022-10-28T17:33:18;9.70;;;6.43;;
75071;SDS011;63651;55.728;38.022;2022-10-28T17:38:19;10.85;;;6.80;;
75071;SDS011;63651;55.728;38.022;2022-10-28T17:43:20;10.85;;;6.88;;
75071;SDS011;63651;55.728;38.022;2022-10-28T17:48:20;9.63;;;6.78;;
75071;SDS011;63651;55.728;38.022;2022-10-28T17:53:21;10.27;;;7.13;;
75071;SDS011;63651;55.728;38.022;2022-10-28T17:58:22;8.27;;;6.18;;
75071;SDS011;63651;55.728;38.022;2022-10-28T18:03:23;9.68;;;6.57;;
75071;SDS011;63651;55.728;38.022;2022-10-28T18:08:25;7.93;;;6.03;;
75071;SDS011;63651;55.728;38.022;2022-10-28T18:13:26;8.50;;;5.78;;
75071;SDS011;63651;55.728;38.022;2022-10-28T18:18:27;9.52;;;6.47;;
75071;SDS011;63651;55.728;38.022;2022-10-28T18:23:28;8.57;;;6.53;;
75071;SDS011;63651;55.728;38.022;2022-10-28T18:28:29;11.35;;;7.03;;
75071;SDS011;63651;55.728;38.022;2022-10-28T18:33:30;9.77;;;6.93;;
75071;SDS011;63651;55.728;38.022;2022-10-28T18:38:32;9.63;;;7.63;;
75071;SDS011;63651;55.728;38.022;2022-10-28T18:43:32;9.68;;;7.65;;
75071;SDS011;63651;55.728;38.022;2022-10-28T18:48:33;10.25;;;7.43;;
75071;SDS011;63651;55.728;38.022;2022-10-28T18:53:41;11.88;;;7.95;;
75071;SDS011;63651;55.728;38.022;2022-10-28T18:58:42;11.10;;;7.45;;
75071;SDS011;63651;55.728;38.022;2022-10-28T19:03:43;11.68;;;7.10;;
75071;SDS011;63651;55.728;38.022;2022-10-28T19:08:44;10.57;;;6.97;;
75071;SDS011;63651;55.728;38.022;2022-10-28T19:13:44;10.32;;;6.82;;
75071;SDS011;63651;55.728;38.022;2022-10-28T19:18:45;8.13;;;6.05;;
75071;SDS011;63651;55.728;38.022;2022-10-28T19:23:46;9.48;;;6.75;;
75071;SDS011;63651;55.728;38.022;2022-10-28T19:28:46;8.65;;;6.63;;
75071;SDS011;63651;55.728;38.022;2022-10-28T19:33:48;7.13;;;5.15;;
75071;SDS011;63651;55.728;38.022;2022-10-28T19:38:49;7.85;;;5.30;;
75071;SDS011;63651;55.728;38.022;2022-10-28T19:43:53;7.00;;;5.43;;
75071;SDS011;63651;55.728;38.022;2022-10-28T19:48:55;7.10;;;5.13;;
75071;SDS011;63651;55.728;38.022;2022-10-28T19:53:57;7.57;;;5.05;;
75071;SDS011;63651;55.728;38.022;2022-10-28T19:58:59;6.13;;;5.05;;
75071;SDS011;63651;55.728;38.022;2022-10-28T20:03:59;8.32;;;5.20;;
75071;SDS011;63651;55.728;38.022;2022-10-28T20:09:00;8.43;;;5.38;;
75071;SDS011;63651;55.728;38.022;2022-10-28T20:14:02;8.27;;;4.32;;
75071;SDS011;63651;55.728;38.022;2022-10-28T20:19:03;6.55;;;4.40;;
75071;SDS011;63651;55.728;38.022;2022-10-28T20:24:05;7.03;;;4.38;;
75071;SDS011;63651;55.728;38.022;2022-10-28T20:29:06;7.05;;;4.07;;
75071;SDS011;63651;55.728;38.022;2022-10-28T20:34:08;8.80;;;4.57;;
75071;SDS011;63651;55.728;38.022;2022-10-28T20:44:12;6.03;;;4.32;;
75071;SDS011;63651;55.728;38.022;2022-10-28T20:49:13;5.38;;;4.10;;
75071;SDS011;63651;55.728;38.022;2022-10-28T20:54:13;7.50;;;4.70;;
75071;SDS011;63651;55.728;38.022;2022-10-28T20:59:14;8.93;;;4.95;;
75071;SDS011;63651;55.728;38.022;2022-10-28T21:04:15;6.53;;;4.28;;
75071;SDS011;63651;55.728;38.022;2022-10-28T21:09:16;8.10;;;4.15;;
75071;SDS011;63651;55.728;38.022;2022-10-28T21:14:16;5.78;;;4.13;;
75071;SDS011;63651;55.728;38.022;2022-10-28T21:19:17;6.43;;;4.32;;
75071;SDS011;63651;55.728;38.022;2022-10-28T21:24:18;6.13;;;3.88;;
75071;SDS011;63651;55.728;38.022;2022-10-28T21:29:18;8.77;;;4.97;;
75071;SDS011;63651;55.728;38.022;2022-10-28T21:34:19;7.90;;;4.32;;
75071;SDS011;63651;55.728;38.022;2022-10-28T21:39:20;10.30;;;5.18;;
75071;SDS011;63651;55.728;38.022;2022-10-28T21:44:20;8.18;;;5.55;;
75071;SDS011;63651;55.728;38.022;2022-10-28T21:49:21;7.38;;;5.60;;
75071;SDS011;63651;55.728;38.022;2022-10-28T21:54:22;7.95;;;5.07;;
75071;SDS011;63651;55.728;38.022;2022-10-28T21:59:22;8.10;;;5.50;;
75071;SDS011;63651;55.728;38.022;2022-10-28T22:04:23;8.15;;;5.32;;
75071;SDS011;63651;55.728;38.022;2022-10-28T22:09:24;8.25;;;5.15;;
75071;SDS011;63651;55.728;38.022;2022-10-28T22:14:24;8.07;;;5.30;;
75071;SDS011;63651;55.728;38.022;2022-10-28T22:19:25;8.07;;;5.28;;
75071;SDS011;63651;55.728;38.022;2022-10-28T22:24:26;9.52;;;5.47;;
75071;SDS011;63651;55.728;38.022;2022-10-28T22:29:26;7.47;;;5.18;;
75071;SDS011;63651;55.728;38.022;2022-10-28T22:34:27;7.28;;;4.70;;
75071;SDS011;63651;55.728;38.022;2022-10-28T22:39:28;7.97;;;4.80;;
75071;SDS011;63651;55.728;38.022;2022-10-28T22:44:29;7.88;;;4.43;;
75071;SDS011;63651;55.728;38.022;2022-10-28T22:49:29;7.18;;;4.75;;
75071;SDS011;63651;55.728;38.022;2022-10-28T22:54:30;8.32;;;5.03;;
75071;SDS011;63651;55.728;38.022;2022-10-28T22:59:31;9.57;;;4.18;;
75071;SDS011;63651;55.728;38.022;2022-10-28T23:04:31;8.27;;;4.32;;
75071;SDS011;63651;55.728;38.022;2022-10-28T23:09:32;8.10;;;3.95;;
75071;SDS011;63651;55.728;38.022;2022-10-28T23:14:33;8.73;;;5.20;;
75071;SDS011;63651;55.728;38.022;2022-10-28T23:19:33;7.32;;;4.85;;
75071;SDS011;63651;55.728;38.022;2022-10-28T23:24:34;8.25;;;4.65;;
75071;SDS011;63651;55.728;38.022;2022-10-28T23:29:35;7.00;;;4.07;;
75071;SDS011;63651;55.728;38.022;2022-10-28T23:34:35;8.13;;;4.70;;
75071;SDS011;63651;55.728;38.022;2022-10-28T23:39:36;8.43;;;4.93;;
75071;SDS011;63651;55.728;38.022;2022-10-28T23:44:37;6.60;;;4.25;;
75071;SDS011;63651;55.728;38.022;2022-10-28T23:49:37;6.15;;;3.70;;
75071;SDS011;63651;55.728;38.022;2022-10-28T23:54:38;7.15;;;4.63;;
75071;SDS011;63651;55.728;38.022;2022-10-28T23:59:39;7.47;;;4.32;;
